createdAt,value
2018-05-17T00:04:38.104Z,10.40
2018-05-17T00:10:07.011Z,10.50
2018-05-17T00:15:35.189Z,10.50
2018-05-17T00:21:03.377Z,10.50
2018-05-17T00:26:32.308Z,10.50
2018-05-17T00:32:01.225Z,10.50
2018-05-17T00:37:29.377Z,10.50
2018-05-17T00:42:58.309Z,10.50
2018-05-17T00:48:27.236Z,10.50
2018-05-17T00:53:55.403Z,10.40
2018-05-17T00:59:23.649Z,10.40
2018-05-17T01:04:51.817Z,10.40
2018-05-17T01:10:20.745Z,10.40
2018-05-17T01:15:49.666Z,10.40
2018-05-17T01:21:17.813Z,10.30
2018-05-17T01:26:46.757Z,10.30
2018-05-17T01:32:14.929Z,10.20
2018-05-17T01:38:01.369Z,10.20
2018-05-17T01:43:29.530Z,10.20
2018-05-17T01:48:59.393Z,10.20
2018-05-17T01:54:28.353Z,10.20
2018-05-17T01:59:56.497Z,10.10
2018-05-17T02:05:24.666Z,10.20
2018-05-17T02:10:53.570Z,10.10
2018-05-17T02:16:21.699Z,10.10
2018-05-17T02:21:49.862Z,10.10
2018-05-17T02:27:17.996Z,10.10
2018-05-17T02:32:48.125Z,10.10
2018-05-17T02:38:16.290Z,10.10
2018-05-17T02:43:44.444Z,10.20
2018-05-17T02:49:12.653Z,10.20
2018-05-17T02:54:41.539Z,10.30
2018-05-17T03:00:09.712Z,10.20
2018-05-17T03:05:37.889Z,10.30
2018-05-17T03:11:06.046Z,10.30
2018-05-17T03:16:34.493Z,10.30
2018-05-17T03:22:02.667Z,10.30
2018-05-17T03:27:31.793Z,10.30
2018-05-17T03:32:59.970Z,10.30
2018-05-17T03:38:30.090Z,10.20
2018-05-17T03:43:58.237Z,10.20
2018-05-17T03:49:26.425Z,10.20
2018-05-17T03:54:54.586Z,10.20
2018-05-17T04:00:22.770Z,10.20
2018-05-17T04:06:10.009Z,10.40
2018-05-17T04:11:39.008Z,10.20
2018-05-17T04:17:07.191Z,10.20
2018-05-17T04:22:35.565Z,10.30
2018-05-17T04:28:03.732Z,10.30
2018-05-17T04:33:31.963Z,10.50
2018-05-17T04:39:00.116Z,10.50
2018-05-17T04:44:28.396Z,10.70
2018-05-17T04:49:56.560Z,10.80
2018-05-17T04:55:24.696Z,11.00
2018-05-17T05:00:52.830Z,11.10
2018-05-17T05:06:20.956Z,11.20
2018-05-17T05:11:49.870Z,11.40
2018-05-17T05:17:18.007Z,11.30
2018-05-17T05:22:46.910Z,11.50
2018-05-17T05:28:15.987Z,11.50
2018-05-17T05:33:44.900Z,11.70
2018-05-17T05:39:13.079Z,11.70
2018-05-17T05:44:41.265Z,11.70
2018-05-17T05:50:10.219Z,11.50
2018-05-17T05:55:38.423Z,11.50
2018-05-17T06:01:07.397Z,11.40
2018-05-17T06:06:35.622Z,11.40
2018-05-17T06:12:03.828Z,11.50
2018-05-17T06:17:31.981Z,11.60
2018-05-17T06:23:00.113Z,11.90
2018-05-17T06:28:28.257Z,12.10
2018-05-17T06:33:56.403Z,12.10
2018-05-17T06:39:24.561Z,12.10
2018-05-17T06:44:52.724Z,12.40
2018-05-17T06:50:21.653Z,12.40
2018-05-17T06:55:50.564Z,12.50
2018-05-17T07:01:18.813Z,12.50
2018-05-17T07:06:47.653Z,12.90
2018-05-17T07:12:16.780Z,12.90
2018-05-17T07:17:44.941Z,12.90
2018-05-17T07:23:13.107Z,13.00
2018-05-17T07:28:41.296Z,13.10
2018-05-17T07:34:09.459Z,13.20
2018-05-17T07:39:37.693Z,13.40
2018-05-17T07:45:05.939Z,13.80
2018-05-17T07:50:34.113Z,14.10
2018-05-17T07:56:02.253Z,14.30
2018-05-17T08:01:30.385Z,14.30
2018-05-17T08:06:59.295Z,14.10
2018-05-17T08:12:27.454Z,14.10
2018-05-17T08:17:56.392Z,14.10
2018-05-17T08:23:25.283Z,14.10
2018-05-17T08:28:53.431Z,14.10
2018-05-17T08:34:21.557Z,14.00
2018-05-17T08:39:50.472Z,13.90
2018-05-17T08:45:18.613Z,13.90
2018-05-17T08:50:47.512Z,13.90
2018-05-17T08:56:15.656Z,13.90
2018-05-17T09:01:43.828Z,13.90
2018-05-17T09:07:12.022Z,14.00
2018-05-17T09:12:40.928Z,14.40
2018-05-17T09:18:09.089Z,14.40
2018-05-17T09:23:37.295Z,14.70
2018-05-17T09:29:05.495Z,15.00
2018-05-17T09:34:33.681Z,14.90
2018-05-17T09:40:01.855Z,14.70
2018-05-17T09:45:30.779Z,14.50
2018-05-17T09:50:58.916Z,14.50
2018-05-17T09:56:27.073Z,14.50
2018-05-17T10:01:55.201Z,14.60
2018-05-17T10:07:23.342Z,14.90
2018-05-17T10:12:51.502Z,15.10
2018-05-17T10:18:19.654Z,15.40
2018-05-17T10:23:47.790Z,15.40
2018-05-17T10:29:15.957Z,15.50
2018-05-17T10:34:44.878Z,15.30
2018-05-17T10:40:15.676Z,15.20
2018-05-17T10:45:43.823Z,15.20
2018-05-17T10:51:12.001Z,15.20
2018-05-17T10:56:40.947Z,15.50
2018-05-17T11:02:09.125Z,15.50
2018-05-17T11:07:37.303Z,15.80
2018-05-17T11:13:05.481Z,16.00
2018-05-17T11:18:33.701Z,15.80
2018-05-17T11:24:01.881Z,15.80
2018-05-17T11:29:30.049Z,15.80
2018-05-17T11:34:58.198Z,16.00
2018-05-17T11:40:26.367Z,16.30
2018-05-17T11:45:54.523Z,16.40
2018-05-17T11:51:23.456Z,16.50
2018-05-17T11:56:52.357Z,16.70
2018-05-17T12:02:20.487Z,16.70
2018-05-17T12:07:48.643Z,16.70
2018-05-17T12:13:17.548Z,16.50
2018-05-17T12:18:45.693Z,16.50
2018-05-17T12:24:14.630Z,16.30
2018-05-17T12:29:43.560Z,16.10
2018-05-17T12:35:11.759Z,16.10
2018-05-17T12:40:39.946Z,15.80
2018-05-17T12:46:08.091Z,15.50
2018-05-17T12:51:36.279Z,15.20
2018-05-17T12:57:04.463Z,14.90
2018-05-17T13:02:33.374Z,14.80
2018-05-17T13:08:01.518Z,14.80
2018-05-17T13:13:30.439Z,15.60
2018-05-17T13:18:58.588Z,15.60
2018-05-17T13:24:27.489Z,15.70
2018-05-17T13:29:56.796Z,15.70
2018-05-17T13:35:24.947Z,15.60
2018-05-17T13:40:53.111Z,15.40
2018-05-17T13:46:22.034Z,15.10
2018-05-17T13:51:50.175Z,15.10
2018-05-17T13:57:19.090Z,15.10
2018-05-17T14:02:48.028Z,14.90
2018-05-17T14:08:16.181Z,14.90
2018-05-17T14:13:44.363Z,14.60
2018-05-17T14:19:12.457Z,14.30
2018-05-17T14:24:40.638Z,14.10
2018-05-17T14:30:08.783Z,13.80
2018-05-17T14:35:37.020Z,13.50
2018-05-17T14:41:05.176Z,13.30
2018-05-17T14:46:34.125Z,12.90
2018-05-17T14:52:02.272Z,12.80
2018-05-17T14:57:30.425Z,12.60
2018-05-17T15:02:58.579Z,12.50
2018-05-17T15:08:27.538Z,12.40
2018-05-17T15:13:55.741Z,12.30
2018-05-17T15:19:23.811Z,12.30
2018-05-17T15:24:51.947Z,12.20
2018-05-17T15:30:20.079Z,12.20
2018-05-17T15:35:48.984Z,12.20
2018-05-17T15:41:17.117Z,12.20
2018-05-17T15:46:45.289Z,12.20
2018-05-17T15:52:13.456Z,12.30
2018-05-17T15:57:41.667Z,12.30
2018-05-17T16:03:09.850Z,12.30
2018-05-17T16:08:38.053Z,12.30
2018-05-17T16:14:06.280Z,12.30
2018-05-17T16:19:34.533Z,12.40
2018-05-17T16:25:02.670Z,12.40
2018-05-17T16:30:30.824Z,12.50
2018-05-17T16:35:59.738Z,12.70
2018-05-17T16:41:27.881Z,12.70
2018-05-17T16:46:56.026Z,13.00
2018-05-17T16:52:24.163Z,13.20
2018-05-17T16:57:52.315Z,13.40
2018-05-17T17:03:20.475Z,13.60
2018-05-17T17:08:49.390Z,13.70
2018-05-17T17:14:17.535Z,13.70
2018-05-17T17:19:46.436Z,13.70
2018-05-17T17:25:14.589Z,13.60
2018-05-17T17:30:43.770Z,13.70
2018-05-17T17:36:12.035Z,13.60
2018-05-17T17:41:40.130Z,13.60
2018-05-17T17:47:08.525Z,13.60
2018-05-17T17:52:36.759Z,13.60
2018-05-17T17:58:05.957Z,13.50
2018-05-17T18:03:34.877Z,13.40
2018-05-17T18:09:03.060Z,13.40
2018-05-17T18:14:31.233Z,13.40
2018-05-17T18:20:00.921Z,13.40
2018-05-17T18:25:29.052Z,13.40
2018-05-17T18:31:00.863Z,13.40
2018-05-17T18:36:29.009Z,13.30
2018-05-17T18:42:01.654Z,13.30
2018-05-17T18:47:30.557Z,13.30
2018-05-17T18:52:58.723Z,13.30
2018-05-17T18:58:27.729Z,13.10
2018-05-17T19:03:56.681Z,13.10
2018-05-17T19:09:24.841Z,13.00
2018-05-17T19:14:53.238Z,13.00
2018-05-17T19:20:21.422Z,12.90
2018-05-17T19:25:49.709Z,12.80
2018-05-17T19:31:17.813Z,12.70
2018-05-17T19:36:47.883Z,12.70
2018-05-17T19:42:16.248Z,12.60
2018-05-17T19:50:57.697Z,12.50
2018-05-17T19:56:25.861Z,12.40
2018-05-17T20:01:54.003Z,12.40
2018-05-17T20:07:22.940Z,12.40
2018-05-17T20:12:51.873Z,12.50
2018-05-17T20:18:20.805Z,12.50
2018-05-17T20:23:49.765Z,12.50
2018-05-17T20:29:17.975Z,12.50
2018-05-17T20:34:46.815Z,12.60
2018-05-17T20:40:15.733Z,12.60
2018-05-17T20:45:44.641Z,12.60
2018-05-17T20:51:13.092Z,12.60
2018-05-17T20:56:41.241Z,12.60
2018-05-17T21:02:09.447Z,12.60
2018-05-17T21:07:38.445Z,12.50
2018-05-17T21:13:06.653Z,12.50
2018-05-17T21:18:34.830Z,12.50
2018-05-17T21:24:03.028Z,12.50
2018-05-17T21:29:31.516Z,12.50
2018-05-17T21:34:59.681Z,12.40
2018-05-17T21:40:27.859Z,12.40
2018-05-17T21:45:55.992Z,12.40
2018-05-17T21:51:24.175Z,12.30
2018-05-17T21:56:52.322Z,12.30
2018-05-17T22:02:20.472Z,12.30
2018-05-17T22:07:48.621Z,12.30
2018-05-17T22:13:17.522Z,12.40
2018-05-17T22:18:45.693Z,12.30
2018-05-17T22:24:13.848Z,12.30
2018-05-17T22:29:42.003Z,12.20
2018-05-17T22:35:12.107Z,12.20
2018-05-17T22:40:40.387Z,12.10
2018-05-17T22:46:09.366Z,12.00
2018-05-17T22:51:37.541Z,12.00
2018-05-17T22:57:12.667Z,11.90
2018-05-17T23:02:40.865Z,11.90
2018-05-17T23:08:09.034Z,11.80
2018-05-17T23:13:37.205Z,11.80
2018-05-17T23:19:05.422Z,11.80
2018-05-17T23:24:33.615Z,11.70
2018-05-17T23:30:01.779Z,11.70
2018-05-17T23:35:29.919Z,11.70
2018-05-17T23:41:16.789Z,11.70
2018-05-17T23:46:44.941Z,11.70
2018-05-17T23:52:13.116Z,11.70
2018-05-17T23:57:41.298Z,11.70
